sensor_id;sensor_type;location;lat;lon;timestamp;P1;durP1;ratioP1;P2;durP2;ratioP2
15946;SDS011;8072;52.554;7.966;2024-02-28T00:00:38;47.27;;;17.77;;
15946;SDS011;8072;52.554;7.966;2024-02-28T00:03:04;42.47;;;16.90;;
15946;SDS011;8072;52.554;7.966;2024-02-28T00:05:30;48.10;;;18.63;;
15946;SDS011;8072;52.554;7.966;2024-02-28T00:07:57;46.57;;;17.53;;
15946;SDS011;8072;52.554;7.966;2024-02-28T00:10:22;47.27;;;17.93;;
15946;SDS011;8072;52.554;7.966;2024-02-28T00:12:48;43.00;;;16.70;;
15946;SDS011;8072;52.554;7.966;2024-02-28T00:15:14;43.83;;;16.57;;
15946;SDS011;8072;52.554;7.966;2024-02-28T00:17:40;41.57;;;17.03;;
15946;SDS011;8072;52.554;7.966;2024-02-28T00:20:07;48.73;;;18.13;;
15946;SDS011;8072;52.554;7.966;2024-02-28T00:22:37;46.50;;;17.73;;
15946;SDS011;8072;52.554;7.966;2024-02-28T00:25:03;45.83;;;16.77;;
15946;SDS011;8072;52.554;7.966;2024-02-28T00:27:32;50.07;;;17.73;;
15946;SDS011;8072;52.554;7.966;2024-02-28T00:29:58;44.10;;;16.20;;
15946;SDS011;8072;52.554;7.966;2024-02-28T00:32:24;50.10;;;17.07;;
15946;SDS011;8072;52.554;7.966;2024-02-28T00:34:50;47.37;;;17.00;;
15946;SDS011;8072;52.554;7.966;2024-02-28T00:37:16;46.23;;;17.30;;
15946;SDS011;8072;52.554;7.966;2024-02-28T00:39:43;43.80;;;16.47;;
15946;SDS011;8072;52.554;7.966;2024-02-28T00:42:10;50.13;;;17.37;;
15946;SDS011;8072;52.554;7.966;2024-02-28T00:44:36;46.03;;;17.23;;
15946;SDS011;8072;52.554;7.966;2024-02-28T00:47:02;46.93;;;16.60;;
15946;SDS011;8072;52.554;7.966;2024-02-28T00:49:27;42.37;;;15.63;;
15946;SDS011;8072;52.554;7.966;2024-02-28T00:51:53;45.47;;;17.57;;
15946;SDS011;8072;52.554;7.966;2024-02-28T00:54:19;42.27;;;16.10;;
15946;SDS011;8072;52.554;7.966;2024-02-28T00:56:46;45.17;;;16.13;;
15946;SDS011;8072;52.554;7.966;2024-02-28T00:59:13;43.40;;;16.53;;
15946;SDS011;8072;52.554;7.966;2024-02-28T01:01:39;35.50;;;15.10;;
15946;SDS011;8072;52.554;7.966;2024-02-28T01:04:05;44.47;;;16.37;;
15946;SDS011;8072;52.554;7.966;2024-02-28T01:06:31;41.67;;;15.57;;
15946;SDS011;8072;52.554;7.966;2024-02-28T01:08:57;41.50;;;15.33;;
15946;SDS011;8072;52.554;7.966;2024-02-28T01:11:22;44.60;;;16.73;;
15946;SDS011;8072;52.554;7.966;2024-02-28T01:13:48;46.07;;;16.83;;
15946;SDS011;8072;52.554;7.966;2024-02-28T01:16:14;46.23;;;17.13;;
15946;SDS011;8072;52.554;7.966;2024-02-28T01:18:40;44.17;;;16.27;;
15946;SDS011;8072;52.554;7.966;2024-02-28T01:21:05;41.37;;;15.60;;
15946;SDS011;8072;52.554;7.966;2024-02-28T01:23:32;43.13;;;15.83;;
15946;SDS011;8072;52.554;7.966;2024-02-28T01:25:57;49.20;;;17.73;;
15946;SDS011;8072;52.554;7.966;2024-02-28T01:28:23;44.43;;;16.07;;
15946;SDS011;8072;52.554;7.966;2024-02-28T01:30:49;40.27;;;15.87;;
15946;SDS011;8072;52.554;7.966;2024-02-28T01:33:15;46.30;;;15.60;;
15946;SDS011;8072;52.554;7.966;2024-02-28T01:35:40;48.57;;;17.57;;
15946;SDS011;8072;52.554;7.966;2024-02-28T01:38:06;45.87;;;16.20;;
15946;SDS011;8072;52.554;7.966;2024-02-28T01:40:32;47.70;;;17.57;;
15946;SDS011;8072;52.554;7.966;2024-02-28T01:43:07;43.27;;;15.43;;
15946;SDS011;8072;52.554;7.966;2024-02-28T01:45:33;47.73;;;17.13;;
15946;SDS011;8072;52.554;7.966;2024-02-28T01:48:00;39.97;;;15.40;;
15946;SDS011;8072;52.554;7.966;2024-02-28T01:50:26;38.60;;;15.03;;
15946;SDS011;8072;52.554;7.966;2024-02-28T01:52:52;38.63;;;14.67;;
15946;SDS011;8072;52.554;7.966;2024-02-28T01:55:18;37.57;;;14.67;;
15946;SDS011;8072;52.554;7.966;2024-02-28T01:57:44;35.53;;;14.93;;
15946;SDS011;8072;52.554;7.966;2024-02-28T02:00:10;36.43;;;13.70;;
15946;SDS011;8072;52.554;7.966;2024-02-28T02:02:36;35.90;;;14.70;;
15946;SDS011;8072;52.554;7.966;2024-02-28T02:05:03;36.13;;;14.43;;
15946;SDS011;8072;52.554;7.966;2024-02-28T02:07:29;40.27;;;15.70;;
15946;SDS011;8072;52.554;7.966;2024-02-28T02:09:56;42.23;;;16.40;;
15946;SDS011;8072;52.554;7.966;2024-02-28T02:12:21;40.73;;;15.63;;
15946;SDS011;8072;52.554;7.966;2024-02-28T02:14:50;44.20;;;14.97;;
15946;SDS011;8072;52.554;7.966;2024-02-28T02:17:16;43.33;;;15.53;;
15946;SDS011;8072;52.554;7.966;2024-02-28T02:19:42;39.30;;;15.67;;
15946;SDS011;8072;52.554;7.966;2024-02-28T02:22:08;45.77;;;16.20;;
15946;SDS011;8072;52.554;7.966;2024-02-28T02:24:35;42.10;;;14.80;;
15946;SDS011;8072;52.554;7.966;2024-02-28T02:27:01;45.57;;;17.10;;
15946;SDS011;8072;52.554;7.966;2024-02-28T02:29:29;54.40;;;18.27;;
15946;SDS011;8072;52.554;7.966;2024-02-28T02:31:55;48.83;;;16.40;;
15946;SDS011;8072;52.554;7.966;2024-02-28T02:34:21;48.50;;;17.07;;
15946;SDS011;8072;52.554;7.966;2024-02-28T02:36:47;52.27;;;17.93;;
15946;SDS011;8072;52.554;7.966;2024-02-28T02:39:13;53.03;;;17.03;;
15946;SDS011;8072;52.554;7.966;2024-02-28T02:41:40;46.83;;;16.27;;
15946;SDS011;8072;52.554;7.966;2024-02-28T02:44:07;55.40;;;17.23;;
15946;SDS011;8072;52.554;7.966;2024-02-28T02:46:33;52.53;;;17.17;;
15946;SDS011;8072;52.554;7.966;2024-02-28T02:48:59;52.43;;;17.90;;
15946;SDS011;8072;52.554;7.966;2024-02-28T02:51:24;46.53;;;17.60;;
15946;SDS011;8072;52.554;7.966;2024-02-28T02:53:52;45.47;;;16.70;;
15946;SDS011;8072;52.554;7.966;2024-02-28T02:56:18;51.03;;;16.77;;
15946;SDS011;8072;52.554;7.966;2024-02-28T02:58:44;47.53;;;15.07;;
15946;SDS011;8072;52.554;7.966;2024-02-28T03:01:10;39.60;;;15.43;;
15946;SDS011;8072;52.554;7.966;2024-02-28T03:03:36;51.83;;;15.47;;
15946;SDS011;8072;52.554;7.966;2024-02-28T03:06:03;44.23;;;15.37;;
15946;SDS011;8072;52.554;7.966;2024-02-28T03:08:30;56.87;;;16.47;;
15946;SDS011;8072;52.554;7.966;2024-02-28T03:10:56;39.43;;;15.37;;
15946;SDS011;8072;52.554;7.966;2024-02-28T03:13:21;46.73;;;15.43;;
15946;SDS011;8072;52.554;7.966;2024-02-28T03:15:48;37.83;;;14.77;;
15946;SDS011;8072;52.554;7.966;2024-02-28T03:18:13;46.37;;;14.90;;
15946;SDS011;8072;52.554;7.966;2024-02-28T03:20:39;56.97;;;14.97;;
15946;SDS011;8072;52.554;7.966;2024-02-28T03:23:05;40.13;;;14.43;;
15946;SDS011;8072;52.554;7.966;2024-02-28T03:25:31;42.70;;;15.83;;
15946;SDS011;8072;52.554;7.966;2024-02-28T03:27:58;39.80;;;14.07;;
15946;SDS011;8072;52.554;7.966;2024-02-28T03:30:24;38.93;;;14.33;;
15946;SDS011;8072;52.554;7.966;2024-02-28T03:32:51;34.13;;;14.10;;
15946;SDS011;8072;52.554;7.966;2024-02-28T03:35:16;34.50;;;13.90;;
15946;SDS011;8072;52.554;7.966;2024-02-28T03:37:42;36.93;;;13.63;;
15946;SDS011;8072;52.554;7.966;2024-02-28T03:40:09;40.33;;;14.57;;
15946;SDS011;8072;52.554;7.966;2024-02-28T03:42:35;38.43;;;14.13;;
15946;SDS011;8072;52.554;7.966;2024-02-28T03:45:01;39.03;;;13.70;;
15946;SDS011;8072;52.554;7.966;2024-02-28T03:47:27;35.87;;;14.33;;
15946;SDS011;8072;52.554;7.966;2024-02-28T03:49:53;35.40;;;14.20;;
15946;SDS011;8072;52.554;7.966;2024-02-28T03:52:22;32.93;;;13.87;;
15946;SDS011;8072;52.554;7.966;2024-02-28T03:54:49;37.97;;;13.83;;
15946;SDS011;8072;52.554;7.966;2024-02-28T03:57:16;34.60;;;14.80;;
15946;SDS011;8072;52.554;7.966;2024-02-28T03:59:42;36.00;;;14.33;;
15946;SDS011;8072;52.554;7.966;2024-02-28T04:02:08;33.87;;;13.13;;
15946;SDS011;8072;52.554;7.966;2024-02-28T04:04:34;39.23;;;15.10;;
15946;SDS011;8072;52.554;7.966;2024-02-28T04:07:00;37.10;;;14.20;;
15946;SDS011;8072;52.554;7.966;2024-02-28T04:09:26;37.00;;;14.63;;
15946;SDS011;8072;52.554;7.966;2024-02-28T04:11:51;40.47;;;14.30;;
15946;SDS011;8072;52.554;7.966;2024-02-28T04:14:17;32.90;;;13.80;;
15946;SDS011;8072;52.554;7.966;2024-02-28T04:16:43;34.23;;;13.60;;
15946;SDS011;8072;52.554;7.966;2024-02-28T04:19:10;39.07;;;14.43;;
15946;SDS011;8072;52.554;7.966;2024-02-28T04:21:36;35.57;;;13.83;;
15946;SDS011;8072;52.554;7.966;2024-02-28T04:24:02;34.63;;;13.43;;
15946;SDS011;8072;52.554;7.966;2024-02-28T04:26:28;46.27;;;14.43;;
15946;SDS011;8072;52.554;7.966;2024-02-28T04:28:55;33.47;;;13.33;;
15946;SDS011;8072;52.554;7.966;2024-02-28T04:31:21;34.63;;;13.60;;
15946;SDS011;8072;52.554;7.966;2024-02-28T04:33:48;29.07;;;12.37;;
15946;SDS011;8072;52.554;7.966;2024-02-28T04:36:14;38.10;;;14.37;;
15946;SDS011;8072;52.554;7.966;2024-02-28T04:38:41;35.10;;;14.07;;
15946;SDS011;8072;52.554;7.966;2024-02-28T04:41:07;53.00;;;14.17;;
15946;SDS011;8072;52.554;7.966;2024-02-28T04:43:33;34.37;;;13.97;;
15946;SDS011;8072;52.554;7.966;2024-02-28T04:45:58;44.93;;;13.97;;
15946;SDS011;8072;52.554;7.966;2024-02-28T04:48:24;33.20;;;13.70;;
15946;SDS011;8072;52.554;7.966;2024-02-28T04:50:51;35.03;;;14.37;;
15946;SDS011;8072;52.554;7.966;2024-02-28T04:53:16;32.57;;;13.57;;
15946;SDS011;8072;52.554;7.966;2024-02-28T04:55:42;36.03;;;13.90;;
15946;SDS011;8072;52.554;7.966;2024-02-28T04:58:08;39.47;;;13.67;;
15946;SDS011;8072;52.554;7.966;2024-02-28T05:00:34;34.73;;;14.10;;
15946;SDS011;8072;52.554;7.966;2024-02-28T05:02:59;43.63;;;15.10;;
15946;SDS011;8072;52.554;7.966;2024-02-28T05:05:26;44.97;;;14.53;;
15946;SDS011;8072;52.554;7.966;2024-02-28T05:07:51;39.90;;;13.40;;
15946;SDS011;8072;52.554;7.966;2024-02-28T05:10:17;37.07;;;14.27;;
15946;SDS011;8072;52.554;7.966;2024-02-28T05:12:43;44.03;;;14.47;;
15946;SDS011;8072;52.554;7.966;2024-02-28T05:15:08;33.70;;;13.30;;
15946;SDS011;8072;52.554;7.966;2024-02-28T05:17:35;30.77;;;13.83;;
15946;SDS011;8072;52.554;7.966;2024-02-28T05:20:00;35.83;;;12.97;;
15946;SDS011;8072;52.554;7.966;2024-02-28T05:22:26;34.23;;;12.87;;
15946;SDS011;8072;52.554;7.966;2024-02-28T05:24:52;35.10;;;13.47;;
15946;SDS011;8072;52.554;7.966;2024-02-28T05:27:18;40.57;;;13.90;;
15946;SDS011;8072;52.554;7.966;2024-02-28T05:29:44;33.07;;;14.23;;
15946;SDS011;8072;52.554;7.966;2024-02-28T05:32:10;42.97;;;14.67;;
15946;SDS011;8072;52.554;7.966;2024-02-28T05:34:36;35.20;;;13.80;;
15946;SDS011;8072;52.554;7.966;2024-02-28T05:37:02;34.13;;;14.03;;
15946;SDS011;8072;52.554;7.966;2024-02-28T05:39:28;41.23;;;13.83;;
15946;SDS011;8072;52.554;7.966;2024-02-28T05:41:57;33.47;;;13.17;;
15946;SDS011;8072;52.554;7.966;2024-02-28T05:44:22;29.90;;;12.77;;
15946;SDS011;8072;52.554;7.966;2024-02-28T05:46:51;30.20;;;13.47;;
15946;SDS011;8072;52.554;7.966;2024-02-28T05:49:17;30.00;;;12.77;;
15946;SDS011;8072;52.554;7.966;2024-02-28T05:51:43;34.40;;;13.87;;
15946;SDS011;8072;52.554;7.966;2024-02-28T05:54:09;29.83;;;12.70;;
15946;SDS011;8072;52.554;7.966;2024-02-28T05:56:35;31.13;;;14.03;;
15946;SDS011;8072;52.554;7.966;2024-02-28T05:59:01;27.60;;;13.20;;
15946;SDS011;8072;52.554;7.966;2024-02-28T06:01:27;28.73;;;12.73;;
15946;SDS011;8072;52.554;7.966;2024-02-28T06:03:53;33.47;;;13.60;;
15946;SDS011;8072;52.554;7.966;2024-02-28T06:06:19;31.00;;;12.70;;
15946;SDS011;8072;52.554;7.966;2024-02-28T06:08:45;26.00;;;12.40;;
15946;SDS011;8072;52.554;7.966;2024-02-28T06:11:11;30.23;;;13.50;;
15946;SDS011;8072;52.554;7.966;2024-02-28T06:13:36;31.93;;;12.57;;
15946;SDS011;8072;52.554;7.966;2024-02-28T06:16:02;26.50;;;12.33;;
15946;SDS011;8072;52.554;7.966;2024-02-28T06:18:28;32.80;;;14.47;;
15946;SDS011;8072;52.554;7.966;2024-02-28T06:20:58;34.33;;;13.20;;
15946;SDS011;8072;52.554;7.966;2024-02-28T06:23:24;35.97;;;13.80;;
15946;SDS011;8072;52.554;7.966;2024-02-28T06:25:50;33.37;;;13.87;;
15946;SDS011;8072;52.554;7.966;2024-02-28T06:28:16;37.33;;;14.37;;
15946;SDS011;8072;52.554;7.966;2024-02-28T06:30:43;33.90;;;13.60;;
15946;SDS011;8072;52.554;7.966;2024-02-28T06:33:11;38.13;;;14.57;;
15946;SDS011;8072;52.554;7.966;2024-02-28T06:35:38;38.80;;;15.70;;
15946;SDS011;8072;52.554;7.966;2024-02-28T06:38:03;39.10;;;14.80;;
15946;SDS011;8072;52.554;7.966;2024-02-28T06:40:29;38.13;;;14.77;;
15946;SDS011;8072;52.554;7.966;2024-02-28T06:42:56;33.20;;;14.60;;
15946;SDS011;8072;52.554;7.966;2024-02-28T06:45:22;48.43;;;16.20;;
15946;SDS011;8072;52.554;7.966;2024-02-28T06:47:48;37.73;;;15.10;;
15946;SDS011;8072;52.554;7.966;2024-02-28T06:50:16;43.00;;;15.77;;
15946;SDS011;8072;52.554;7.966;2024-02-28T06:52:42;40.03;;;16.90;;
15946;SDS011;8072;52.554;7.966;2024-02-28T06:55:08;44.77;;;17.53;;
15946;SDS011;8072;52.554;7.966;2024-02-28T06:57:42;40.43;;;16.33;;
15946;SDS011;8072;52.554;7.966;2024-02-28T07:00:09;38.20;;;15.20;;
15946;SDS011;8072;52.554;7.966;2024-02-28T07:02:44;49.47;;;17.40;;
15946;SDS011;8072;52.554;7.966;2024-02-28T07:05:09;51.97;;;16.60;;
15946;SDS011;8072;52.554;7.966;2024-02-28T07:07:35;43.53;;;16.63;;
15946;SDS011;8072;52.554;7.966;2024-02-28T07:10:02;39.90;;;16.13;;
15946;SDS011;8072;52.554;7.966;2024-02-28T07:12:29;40.00;;;16.77;;
15946;SDS011;8072;52.554;7.966;2024-02-28T07:14:55;41.97;;;16.33;;
15946;SDS011;8072;52.554;7.966;2024-02-28T07:17:21;42.37;;;16.10;;
15946;SDS011;8072;52.554;7.966;2024-02-28T07:19:47;45.53;;;16.87;;
15946;SDS011;8072;52.554;7.966;2024-02-28T07:22:13;55.10;;;18.20;;
15946;SDS011;8072;52.554;7.966;2024-02-28T07:24:39;48.23;;;17.47;;
15946;SDS011;8072;52.554;7.966;2024-02-28T07:27:05;47.57;;;17.20;;
15946;SDS011;8072;52.554;7.966;2024-02-28T07:29:30;47.57;;;17.70;;
15946;SDS011;8072;52.554;7.966;2024-02-28T07:31:56;43.33;;;17.63;;
15946;SDS011;8072;52.554;7.966;2024-02-28T07:34:22;40.13;;;16.90;;
15946;SDS011;8072;52.554;7.966;2024-02-28T07:36:48;44.20;;;17.70;;
15946;SDS011;8072;52.554;7.966;2024-02-28T07:39:14;43.37;;;16.73;;
15946;SDS011;8072;52.554;7.966;2024-02-28T07:41:39;42.07;;;16.90;;
15946;SDS011;8072;52.554;7.966;2024-02-28T07:44:06;42.67;;;16.63;;
15946;SDS011;8072;52.554;7.966;2024-02-28T07:46:33;44.20;;;17.63;;
15946;SDS011;8072;52.554;7.966;2024-02-28T07:49:02;46.67;;;18.37;;
15946;SDS011;8072;52.554;7.966;2024-02-28T07:51:28;48.10;;;18.17;;
15946;SDS011;8072;52.554;7.966;2024-02-28T07:53:54;46.27;;;17.97;;
15946;SDS011;8072;52.554;7.966;2024-02-28T07:56:20;49.80;;;18.10;;
15946;SDS011;8072;52.554;7.966;2024-02-28T07:58:46;51.07;;;18.37;;
15946;SDS011;8072;52.554;7.966;2024-02-28T08:01:12;45.40;;;16.50;;
15946;SDS011;8072;52.554;7.966;2024-02-28T08:03:38;46.23;;;17.30;;
15946;SDS011;8072;52.554;7.966;2024-02-28T08:06:05;47.03;;;17.90;;
15946;SDS011;8072;52.554;7.966;2024-02-28T08:08:31;47.53;;;18.13;;
15946;SDS011;8072;52.554;7.966;2024-02-28T08:10:57;46.40;;;18.37;;
15946;SDS011;8072;52.554;7.966;2024-02-28T08:13:23;44.37;;;16.00;;
15946;SDS011;8072;52.554;7.966;2024-02-28T08:15:48;47.27;;;18.90;;
15946;SDS011;8072;52.554;7.966;2024-02-28T08:18:14;47.47;;;18.20;;
15946;SDS011;8072;52.554;7.966;2024-02-28T08:20:40;42.77;;;18.23;;
15946;SDS011;8072;52.554;7.966;2024-02-28T08:23:06;42.50;;;17.80;;
15946;SDS011;8072;52.554;7.966;2024-02-28T08:25:32;46.63;;;18.17;;
15946;SDS011;8072;52.554;7.966;2024-02-28T08:27:58;38.20;;;16.30;;
15946;SDS011;8072;52.554;7.966;2024-02-28T08:30:24;40.83;;;16.87;;
15946;SDS011;8072;52.554;7.966;2024-02-28T08:32:50;43.23;;;17.47;;
15946;SDS011;8072;52.554;7.966;2024-02-28T08:35:19;44.53;;;18.73;;
15946;SDS011;8072;52.554;7.966;2024-02-28T08:37:44;42.83;;;16.90;;
15946;SDS011;8072;52.554;7.966;2024-02-28T08:40:10;48.70;;;18.20;;
15946;SDS011;8072;52.554;7.966;2024-02-28T08:42:37;36.57;;;17.43;;
15946;SDS011;8072;52.554;7.966;2024-02-28T08:45:03;45.10;;;18.43;;
15946;SDS011;8072;52.554;7.966;2024-02-28T08:47:31;48.10;;;17.63;;
15946;SDS011;8072;52.554;7.966;2024-02-28T08:49:57;48.03;;;19.37;;
15946;SDS011;8072;52.554;7.966;2024-02-28T08:52:23;42.77;;;18.77;;
15946;SDS011;8072;52.554;7.966;2024-02-28T08:54:48;47.23;;;17.83;;
15946;SDS011;8072;52.554;7.966;2024-02-28T08:57:14;45.37;;;18.00;;
15946;SDS011;8072;52.554;7.966;2024-02-28T08:59:40;43.70;;;17.43;;
15946;SDS011;8072;52.554;7.966;2024-02-28T09:02:06;43.60;;;17.63;;
15946;SDS011;8072;52.554;7.966;2024-02-28T09:04:33;48.23;;;18.67;;
15946;SDS011;8072;52.554;7.966;2024-02-28T09:06:59;48.13;;;18.73;;
15946;SDS011;8072;52.554;7.966;2024-02-28T09:09:26;45.17;;;18.47;;
15946;SDS011;8072;52.554;7.966;2024-02-28T09:11:53;46.10;;;18.60;;
15946;SDS011;8072;52.554;7.966;2024-02-28T09:14:19;45.77;;;18.87;;
15946;SDS011;8072;52.554;7.966;2024-02-28T09:16:45;51.57;;;19.07;;
15946;SDS011;8072;52.554;7.966;2024-02-28T09:19:11;49.17;;;20.07;;
15946;SDS011;8072;52.554;7.966;2024-02-28T09:21:37;51.43;;;20.57;;
15946;SDS011;8072;52.554;7.966;2024-02-28T09:24:02;51.50;;;19.90;;
15946;SDS011;8072;52.554;7.966;2024-02-28T09:26:29;44.53;;;17.40;;
15946;SDS011;8072;52.554;7.966;2024-02-28T09:28:54;50.60;;;19.90;;
15946;SDS011;8072;52.554;7.966;2024-02-28T09:31:21;49.70;;;20.27;;
15946;SDS011;8072;52.554;7.966;2024-02-28T09:33:46;51.80;;;20.40;;
15946;SDS011;8072;52.554;7.966;2024-02-28T09:36:13;47.63;;;20.13;;
15946;SDS011;8072;52.554;7.966;2024-02-28T09:38:40;54.07;;;21.03;;
15946;SDS011;8072;52.554;7.966;2024-02-28T09:41:07;48.93;;;20.50;;
15946;SDS011;8072;52.554;7.966;2024-02-28T09:43:40;49.47;;;20.17;;
15946;SDS011;8072;52.554;7.966;2024-02-28T09:46:07;49.23;;;20.13;;
15946;SDS011;8072;52.554;7.966;2024-02-28T09:48:40;52.40;;;20.13;;
15946;SDS011;8072;52.554;7.966;2024-02-28T09:51:08;49.40;;;20.27;;
15946;SDS011;8072;52.554;7.966;2024-02-28T09:53:37;45.93;;;18.53;;
15946;SDS011;8072;52.554;7.966;2024-02-28T09:56:04;60.23;;;20.93;;
15946;SDS011;8072;52.554;7.966;2024-02-28T09:58:31;51.53;;;20.57;;
15946;SDS011;8072;52.554;7.966;2024-02-28T10:01:00;54.70;;;21.00;;
15946;SDS011;8072;52.554;7.966;2024-02-28T10:03:30;49.10;;;20.47;;
15946;SDS011;8072;52.554;7.966;2024-02-28T10:05:57;50.33;;;20.40;;
15946;SDS011;8072;52.554;7.966;2024-02-28T10:08:23;54.40;;;21.50;;
15946;SDS011;8072;52.554;7.966;2024-02-28T10:10:49;53.10;;;20.10;;
15946;SDS011;8072;52.554;7.966;2024-02-28T10:13:19;53.47;;;21.23;;
15946;SDS011;8072;52.554;7.966;2024-02-28T10:15:46;48.77;;;20.13;;
15946;SDS011;8072;52.554;7.966;2024-02-28T10:18:14;51.83;;;21.07;;
15946;SDS011;8072;52.554;7.966;2024-02-28T10:20:40;56.23;;;19.37;;
15946;SDS011;8072;52.554;7.966;2024-02-28T10:23:06;51.23;;;19.53;;
15946;SDS011;8072;52.554;7.966;2024-02-28T10:25:33;47.20;;;20.27;;
15946;SDS011;8072;52.554;7.966;2024-02-28T10:28:06;51.33;;;20.03;;
15946;SDS011;8072;52.554;7.966;2024-02-28T10:30:32;49.20;;;21.23;;
15946;SDS011;8072;52.554;7.966;2024-02-28T10:32:58;55.00;;;20.03;;
15946;SDS011;8072;52.554;7.966;2024-02-28T10:35:23;51.00;;;21.23;;
15946;SDS011;8072;52.554;7.966;2024-02-28T10:37:51;49.53;;;20.13;;
15946;SDS011;8072;52.554;7.966;2024-02-28T10:40:19;52.53;;;20.70;;
15946;SDS011;8072;52.554;7.966;2024-02-28T10:42:47;47.40;;;19.07;;
15946;SDS011;8072;52.554;7.966;2024-02-28T10:45:17;45.53;;;19.63;;
15946;SDS011;8072;52.554;7.966;2024-02-28T10:47:45;50.60;;;20.97;;
15946;SDS011;8072;52.554;7.966;2024-02-28T10:50:13;51.27;;;19.83;;
15946;SDS011;8072;52.554;7.966;2024-02-28T10:52:43;38.50;;;18.50;;
15946;SDS011;8072;52.554;7.966;2024-02-28T10:55:12;47.27;;;19.50;;
15946;SDS011;8072;52.554;7.966;2024-02-28T10:57:42;46.27;;;19.57;;
15946;SDS011;8072;52.554;7.966;2024-02-28T11:00:10;44.63;;;19.20;;
15946;SDS011;8072;52.554;7.966;2024-02-28T11:02:37;44.03;;;18.57;;
15946;SDS011;8072;52.554;7.966;2024-02-28T11:05:05;46.63;;;20.13;;
15946;SDS011;8072;52.554;7.966;2024-02-28T11:07:31;45.50;;;19.20;;
15946;SDS011;8072;52.554;7.966;2024-02-28T11:09:58;41.80;;;19.47;;
15946;SDS011;8072;52.554;7.966;2024-02-28T11:12:30;41.90;;;19.07;;
15946;SDS011;8072;52.554;7.966;2024-02-28T11:14:59;42.93;;;18.57;;
15946;SDS011;8072;52.554;7.966;2024-02-28T11:17:27;41.13;;;17.77;;
15946;SDS011;8072;52.554;7.966;2024-02-28T11:19:54;47.00;;;17.93;;
15946;SDS011;8072;52.554;7.966;2024-02-28T11:22:21;34.00;;;17.60;;
15946;SDS011;8072;52.554;7.966;2024-02-28T11:24:47;45.40;;;18.97;;
15946;SDS011;8072;52.554;7.966;2024-02-28T11:27:16;40.03;;;18.20;;
15946;SDS011;8072;52.554;7.966;2024-02-28T11:29:43;39.57;;;17.67;;
15946;SDS011;8072;52.554;7.966;2024-02-28T11:32:12;39.13;;;18.47;;
15946;SDS011;8072;52.554;7.966;2024-02-28T11:34:39;45.83;;;18.70;;
15946;SDS011;8072;52.554;7.966;2024-02-28T11:37:05;39.13;;;17.97;;
15946;SDS011;8072;52.554;7.966;2024-02-28T11:39:31;41.03;;;18.67;;
15946;SDS011;8072;52.554;7.966;2024-02-28T11:42:10;47.37;;;19.27;;
15946;SDS011;8072;52.554;7.966;2024-02-28T11:44:38;50.87;;;20.70;;
15946;SDS011;8072;52.554;7.966;2024-02-28T11:47:05;51.00;;;19.47;;
15946;SDS011;8072;52.554;7.966;2024-02-28T11:49:34;42.83;;;19.80;;
15946;SDS011;8072;52.554;7.966;2024-02-28T11:52:00;51.63;;;20.43;;
15946;SDS011;8072;52.554;7.966;2024-02-28T11:54:25;44.73;;;20.47;;
15946;SDS011;8072;52.554;7.966;2024-02-28T11:56:51;45.77;;;20.60;;
15946;SDS011;8072;52.554;7.966;2024-02-28T11:59:17;49.00;;;21.37;;
15946;SDS011;8072;52.554;7.966;2024-02-28T12:01:43;49.93;;;20.70;;
15946;SDS011;8072;52.554;7.966;2024-02-28T12:04:11;50.30;;;21.23;;
15946;SDS011;8072;52.554;7.966;2024-02-28T12:06:38;43.40;;;21.37;;
15946;SDS011;8072;52.554;7.966;2024-02-28T12:09:09;44.57;;;21.23;;
15946;SDS011;8072;52.554;7.966;2024-02-28T12:11:39;57.67;;;23.07;;
15946;SDS011;8072;52.554;7.966;2024-02-28T12:14:08;54.90;;;22.27;;
15946;SDS011;8072;52.554;7.966;2024-02-28T12:16:38;50.07;;;21.03;;
15946;SDS011;8072;52.554;7.966;2024-02-28T12:19:11;57.00;;;22.33;;
15946;SDS011;8072;52.554;7.966;2024-02-28T12:21:38;54.63;;;22.97;;
15946;SDS011;8072;52.554;7.966;2024-02-28T12:24:08;58.20;;;23.57;;
15946;SDS011;8072;52.554;7.966;2024-02-28T12:26:35;59.17;;;22.77;;
15946;SDS011;8072;52.554;7.966;2024-02-28T12:29:01;53.53;;;22.53;;
15946;SDS011;8072;52.554;7.966;2024-02-28T12:31:27;57.87;;;23.40;;
15946;SDS011;8072;52.554;7.966;2024-02-28T12:33:54;61.77;;;23.27;;
15946;SDS011;8072;52.554;7.966;2024-02-28T12:36:20;57.50;;;24.83;;
15946;SDS011;8072;52.554;7.966;2024-02-28T12:38:46;61.27;;;25.00;;
15946;SDS011;8072;52.554;7.966;2024-02-28T12:41:13;56.33;;;25.30;;
15946;SDS011;8072;52.554;7.966;2024-02-28T12:43:40;66.37;;;25.63;;
15946;SDS011;8072;52.554;7.966;2024-02-28T12:46:06;63.67;;;25.60;;
15946;SDS011;8072;52.554;7.966;2024-02-28T12:48:38;67.57;;;25.00;;
15946;SDS011;8072;52.554;7.966;2024-02-28T12:51:06;58.70;;;23.80;;
15946;SDS011;8072;52.554;7.966;2024-02-28T12:53:35;61.30;;;23.43;;
15946;SDS011;8072;52.554;7.966;2024-02-28T12:56:02;60.13;;;24.67;;
15946;SDS011;8072;52.554;7.966;2024-02-28T12:58:27;62.87;;;25.43;;
15946;SDS011;8072;52.554;7.966;2024-02-28T13:00:53;59.97;;;25.87;;
15946;SDS011;8072;52.554;7.966;2024-02-28T13:03:19;69.33;;;26.60;;
15946;SDS011;8072;52.554;7.966;2024-02-28T13:05:45;63.03;;;25.20;;
15946;SDS011;8072;52.554;7.966;2024-02-28T13:08:11;63.97;;;25.77;;
15946;SDS011;8072;52.554;7.966;2024-02-28T13:10:37;63.93;;;25.17;;
15946;SDS011;8072;52.554;7.966;2024-02-28T13:13:06;65.30;;;23.63;;
15946;SDS011;8072;52.554;7.966;2024-02-28T13:15:32;69.60;;;25.93;;
15946;SDS011;8072;52.554;7.966;2024-02-28T13:17:59;64.30;;;24.87;;
15946;SDS011;8072;52.554;7.966;2024-02-28T13:20:26;64.87;;;25.87;;
15946;SDS011;8072;52.554;7.966;2024-02-28T13:22:52;64.43;;;25.97;;
15946;SDS011;8072;52.554;7.966;2024-02-28T13:25:18;67.07;;;25.57;;
15946;SDS011;8072;52.554;7.966;2024-02-28T13:27:45;63.97;;;24.37;;
15946;SDS011;8072;52.554;7.966;2024-02-28T13:30:12;65.93;;;25.70;;
15946;SDS011;8072;52.554;7.966;2024-02-28T13:32:39;57.03;;;23.73;;
15946;SDS011;8072;52.554;7.966;2024-02-28T13:35:05;60.70;;;23.90;;
15946;SDS011;8072;52.554;7.966;2024-02-28T13:37:31;59.60;;;23.70;;
15946;SDS011;8072;52.554;7.966;2024-02-28T13:39:58;72.30;;;26.00;;
15946;SDS011;8072;52.554;7.966;2024-02-28T13:42:24;76.67;;;26.67;;
15946;SDS011;8072;52.554;7.966;2024-02-28T13:44:50;69.57;;;25.43;;
15946;SDS011;8072;52.554;7.966;2024-02-28T13:47:17;67.33;;;25.77;;
15946;SDS011;8072;52.554;7.966;2024-02-28T13:49:44;64.83;;;26.23;;
15946;SDS011;8072;52.554;7.966;2024-02-28T13:52:10;59.80;;;24.83;;
15946;SDS011;8072;52.554;7.966;2024-02-28T13:54:36;65.47;;;24.23;;
15946;SDS011;8072;52.554;7.966;2024-02-28T13:57:02;63.20;;;26.00;;
15946;SDS011;8072;52.554;7.966;2024-02-28T13:59:29;63.70;;;24.03;;
15946;SDS011;8072;52.554;7.966;2024-02-28T14:01:56;65.20;;;24.63;;
15946;SDS011;8072;52.554;7.966;2024-02-28T14:04:24;60.57;;;22.63;;
15946;SDS011;8072;52.554;7.966;2024-02-28T14:06:49;63.17;;;24.53;;
15946;SDS011;8072;52.554;7.966;2024-02-28T14:09:15;69.30;;;26.17;;
15946;SDS011;8072;52.554;7.966;2024-02-28T14:11:41;66.47;;;25.33;;
15946;SDS011;8072;52.554;7.966;2024-02-28T14:14:07;63.97;;;25.30;;
15946;SDS011;8072;52.554;7.966;2024-02-28T14:16:32;63.57;;;26.73;;
15946;SDS011;8072;52.554;7.966;2024-02-28T14:18:58;69.37;;;25.47;;
15946;SDS011;8072;52.554;7.966;2024-02-28T14:21:25;74.33;;;27.03;;
15946;SDS011;8072;52.554;7.966;2024-02-28T14:23:51;66.70;;;25.53;;
15946;SDS011;8072;52.554;7.966;2024-02-28T14:26:17;73.87;;;27.33;;
15946;SDS011;8072;52.554;7.966;2024-02-28T14:28:43;70.83;;;27.27;;